createdAt,value
2022-10-11T00:00:54.113Z,99323.00
2022-10-11T00:03:33.779Z,99316.40
2022-10-11T00:06:03.602Z,99321.20
2022-10-11T00:08:35.332Z,99327.60
2022-10-11T00:11:07.245Z,99321.60
2022-10-11T00:13:35.837Z,99321.40
2022-10-11T00:16:12.241Z,99328.20
2022-10-11T00:18:40.135Z,99330.00
2022-10-11T00:21:14.872Z,99329.00
2022-10-11T00:23:43.423Z,99329.00
2022-10-11T00:26:12.564Z,99326.80
2022-10-11T00:28:41.190Z,99338.00
2022-10-11T00:31:13.444Z,99331.20
2022-10-11T00:33:41.272Z,99329.60
2022-10-11T00:36:10.140Z,99331.20
2022-10-11T00:38:37.749Z,99332.80
2022-10-11T00:41:06.122Z,99337.60
2022-10-11T00:43:34.147Z,99332.80
2022-10-11T00:46:27.449Z,99331.80
2022-10-11T00:49:23.028Z,99335.60
2022-10-11T00:51:57.018Z,99332.60
2022-10-11T00:54:30.340Z,99331.40
2022-10-11T00:57:05.496Z,99332.20
2022-10-11T00:59:40.377Z,99332.80
2022-10-11T01:02:10.455Z,99333.60
2022-10-11T01:04:39.373Z,99330.80
2022-10-11T01:07:07.373Z,99331.40
2022-10-11T01:09:35.943Z,99327.20
2022-10-11T01:12:19.583Z,99328.60
2022-10-11T01:14:47.026Z,99330.40
2022-10-11T01:17:27.513Z,99322.20
2022-10-11T01:20:34.436Z,99336.80
2022-10-11T01:23:22.812Z,99331.60
2022-10-11T01:26:36.287Z,99331.00
2022-10-11T01:29:29.485Z,99333.20
2022-10-11T01:32:22.383Z,99333.60
2022-10-11T01:35:28.853Z,99332.40
2022-10-11T01:38:08.706Z,99332.80
2022-10-11T01:40:46.905Z,99338.60
2022-10-11T01:43:16.693Z,99340.40
2022-10-11T01:45:50.656Z,99337.40
2022-10-11T01:48:18.518Z,99332.60
2022-10-11T01:50:49.690Z,99331.60
2022-10-11T01:53:56.054Z,99332.60
2022-10-11T01:56:32.479Z,99330.60
2022-10-11T01:59:54.546Z,99331.80
2022-10-11T02:03:02.406Z,99327.20
2022-10-11T02:05:54.137Z,99327.40
2022-10-11T02:09:08.185Z,99331.00
2022-10-11T02:11:38.999Z,99333.80
2022-10-11T02:14:15.856Z,99335.80
2022-10-11T02:16:53.531Z,99340.20
2022-10-11T02:19:29.082Z,99341.00
2022-10-11T02:22:06.013Z,99338.00
2022-10-11T02:24:37.905Z,99336.20
2022-10-11T02:27:07.575Z,99337.60
2022-10-11T02:29:41.659Z,99339.60
2022-10-11T02:32:11.492Z,99342.80
2022-10-11T02:34:50.813Z,99346.80
2022-10-11T02:37:32.713Z,99345.00
2022-10-11T02:40:13.097Z,99345.00
2022-10-11T02:42:48.742Z,99349.80
2022-10-11T02:45:24.385Z,99349.60
2022-10-11T02:47:52.484Z,99353.20
2022-10-11T02:50:22.859Z,99360.60
2022-10-11T02:52:50.424Z,99364.80
2022-10-11T02:55:18.243Z,99359.40
2022-10-11T02:57:46.440Z,99363.60
2022-10-11T03:00:14.933Z,99364.20
2022-10-11T03:02:42.646Z,99361.60
2022-10-11T03:05:10.197Z,99366.60
2022-10-11T03:07:37.769Z,99365.20
2022-10-11T03:10:06.972Z,99370.60
2022-10-11T03:12:34.535Z,99366.60
2022-10-11T03:15:02.279Z,99373.20
2022-10-11T03:17:37.653Z,99369.20
2022-10-11T03:20:07.038Z,99367.00
2022-10-11T03:22:34.928Z,99373.00
2022-10-11T03:25:04.663Z,99373.60
2022-10-11T03:27:34.601Z,99374.40
2022-10-11T03:30:02.704Z,99373.60
2022-10-11T03:32:30.563Z,99381.20
2022-10-11T03:34:58.157Z,99376.00
2022-10-11T03:37:26.859Z,99384.80
2022-10-11T03:39:54.388Z,99387.20
2022-10-11T03:42:21.996Z,99392.80
2022-10-11T03:44:51.809Z,99395.80
2022-10-11T03:47:20.188Z,99398.60
2022-10-11T03:49:47.799Z,99401.60
2022-10-11T03:52:15.406Z,99401.80
2022-10-11T03:54:43.053Z,99403.20
2022-10-11T03:57:10.554Z,99405.80
2022-10-11T03:59:38.173Z,99399.20
2022-10-11T04:02:05.756Z,99400.80
2022-10-11T04:04:33.552Z,99403.80
2022-10-11T04:07:01.082Z,99403.00
2022-10-11T04:09:28.786Z,99402.80
2022-10-11T04:11:56.825Z,99398.60
2022-10-11T04:14:24.716Z,99407.40
2022-10-11T04:16:52.330Z,99407.80
2022-10-11T04:19:20.258Z,99415.20
2022-10-11T04:21:47.809Z,99420.00
2022-10-11T04:24:15.397Z,99421.80
2022-10-11T04:26:43.010Z,99429.40
2022-10-11T04:29:10.568Z,99431.00
2022-10-11T04:31:38.272Z,99437.00
2022-10-11T04:34:05.803Z,99434.00
2022-10-11T04:36:34.003Z,99438.20
2022-10-11T04:39:01.879Z,99441.20
2022-10-11T04:41:29.604Z,99448.80
2022-10-11T04:43:57.220Z,99444.80
2022-10-11T04:46:25.085Z,99449.20
2022-10-11T04:48:52.676Z,99452.40
2022-10-11T04:51:22.469Z,99454.20
2022-10-11T04:53:50.107Z,99455.00
2022-10-11T04:56:18.694Z,99454.00
2022-10-11T04:58:51.882Z,99461.60
2022-10-11T05:01:21.079Z,99461.80
2022-10-11T05:03:48.797Z,99461.40
2022-10-11T05:06:16.444Z,99466.00
2022-10-11T05:08:44.201Z,99466.80
2022-10-11T05:11:16.079Z,99469.60
2022-10-11T05:13:46.008Z,99474.60
2022-10-11T05:16:15.231Z,99475.00
2022-10-11T05:18:43.136Z,99479.40
2022-10-11T05:21:20.844Z,99480.00
2022-10-11T05:23:51.079Z,99484.20
2022-10-11T05:26:20.478Z,99487.00
2022-10-11T05:28:48.704Z,99487.60
2022-10-11T05:31:16.925Z,99491.40
2022-10-11T05:33:45.051Z,99491.40
2022-10-11T05:36:13.178Z,99495.00
2022-10-11T05:38:41.408Z,99497.80
2022-10-11T05:41:10.367Z,99499.20
2022-10-11T05:43:37.969Z,99502.60
2022-10-11T05:46:06.710Z,99505.20
2022-10-11T05:48:34.858Z,99505.80
2022-10-11T05:51:06.925Z,99508.60
2022-10-11T05:53:34.533Z,99511.00
2022-10-11T05:56:02.363Z,99515.20
2022-10-11T05:58:31.412Z,99515.20
2022-10-11T06:00:59.166Z,99517.00
2022-10-11T06:03:26.939Z,99529.40
2022-10-11T06:05:56.994Z,99534.80
2022-10-11T06:08:24.964Z,99537.20
2022-10-11T06:10:52.534Z,99547.80
2022-10-11T06:13:20.244Z,99546.40
2022-10-11T06:15:47.828Z,99553.60
2022-10-11T06:18:15.408Z,99559.00
2022-10-11T06:20:42.973Z,99560.40
2022-10-11T06:23:10.589Z,99564.40
2022-10-11T06:25:38.085Z,99566.80
2022-10-11T06:28:05.724Z,99573.80
2022-10-11T06:30:33.414Z,99574.80
2022-10-11T06:33:04.829Z,99578.60
2022-10-11T06:35:32.730Z,99578.60
2022-10-11T06:38:00.330Z,99581.00
2022-10-11T06:40:27.901Z,99584.00
2022-10-11T06:42:55.552Z,99579.20
2022-10-11T06:45:23.222Z,99587.80
2022-10-11T06:47:50.799Z,99583.60
2022-10-11T06:50:25.956Z,99591.40
2022-10-11T06:53:09.411Z,99599.80
2022-10-11T06:55:37.032Z,99611.60
2022-10-11T06:58:04.572Z,99613.80
2022-10-11T07:00:32.191Z,99616.00
2022-10-11T07:03:00.225Z,99621.80
2022-10-11T07:05:29.460Z,99624.60
2022-10-11T07:07:57.081Z,99625.60
2022-10-11T07:10:24.646Z,99630.60
2022-10-11T07:12:52.712Z,99638.00
2022-10-11T07:15:20.271Z,99643.40
2022-10-11T07:17:47.882Z,99650.20
2022-10-11T07:20:15.481Z,99658.00
2022-10-11T07:22:43.033Z,99656.40
2022-10-11T07:25:10.634Z,99660.60
2022-10-11T07:27:38.241Z,99666.80
2022-10-11T07:30:07.062Z,99664.60
2022-10-11T07:32:34.736Z,99665.40
2022-10-11T07:35:02.401Z,99669.80
2022-10-11T07:37:30.075Z,99673.60
2022-10-11T07:39:57.714Z,99676.20
2022-10-11T07:42:25.361Z,99680.60
2022-10-11T07:44:53.013Z,99679.00
2022-10-11T07:47:20.512Z,99685.60
2022-10-11T07:49:48.402Z,99683.00
2022-10-11T07:52:15.988Z,99693.40
2022-10-11T07:54:43.554Z,99688.60
2022-10-11T07:57:11.124Z,99691.80
2022-10-11T07:59:38.805Z,99699.80
2022-10-11T08:02:08.678Z,99701.40
2022-10-11T08:04:36.390Z,99706.80
2022-10-11T08:07:04.528Z,99709.60
2022-10-11T08:09:32.706Z,99714.20
2022-10-11T08:12:00.248Z,99718.20
2022-10-11T08:14:27.862Z,99719.40
2022-10-11T08:16:55.484Z,99721.60
2022-10-11T08:19:23.072Z,99719.80
2022-10-11T08:21:50.600Z,99721.60
2022-10-11T08:24:20.804Z,99721.00
2022-10-11T08:26:48.443Z,99721.00
2022-10-11T08:29:16.123Z,99720.80
2022-10-11T08:31:44.797Z,99718.20
2022-10-11T08:34:12.424Z,99723.60
2022-10-11T08:36:40.048Z,99721.00
2022-10-11T08:39:08.986Z,99717.40
2022-10-11T08:41:55.580Z,99721.20
2022-10-11T08:45:05.558Z,99726.00
2022-10-11T08:47:36.426Z,99726.40
2022-10-11T08:50:08.156Z,99725.80
2022-10-11T08:52:53.918Z,99730.20
2022-10-11T08:55:29.084Z,99736.80
2022-10-11T08:57:57.213Z,99736.20
2022-10-11T09:00:32.105Z,99739.40
2022-10-11T09:03:20.264Z,99740.80
2022-10-11T09:06:33.544Z,99744.00
2022-10-11T09:09:22.824Z,99745.20
2022-10-11T09:12:32.239Z,99747.00
2022-10-11T09:15:35.207Z,99756.80
2022-10-11T09:18:24.255Z,99758.40
2022-10-11T09:21:28.914Z,99756.40
2022-10-11T09:24:45.805Z,99761.00
2022-10-11T09:28:01.693Z,99759.60
2022-10-11T09:30:33.105Z,99756.20
2022-10-11T09:33:34.069Z,99755.60
2022-10-11T09:36:18.369Z,99755.00
2022-10-11T09:39:10.297Z,99763.00
2022-10-11T09:42:19.488Z,99758.60
2022-10-11T09:44:50.937Z,99757.00
2022-10-11T09:47:24.075Z,99756.60
2022-10-11T09:49:59.292Z,99749.00
2022-10-11T09:52:27.235Z,99757.00
2022-10-11T09:54:59.994Z,99759.20
2022-10-11T09:57:41.927Z,99758.00
2022-10-11T10:00:12.243Z,99760.60
2022-10-11T10:02:49.274Z,99757.80
2022-10-11T10:05:32.051Z,99758.00
2022-10-11T10:08:25.268Z,99755.60
2022-10-11T10:11:04.557Z,99757.80
2022-10-11T10:13:53.124Z,99753.40
2022-10-11T10:16:23.691Z,99759.20
2022-10-11T10:19:03.638Z,99758.40
2022-10-11T10:21:43.280Z,99763.60
2022-10-11T10:24:37.887Z,99758.20
2022-10-11T10:27:22.904Z,99754.20
2022-10-11T10:30:08.959Z,99758.00
2022-10-11T10:33:03.826Z,99756.20
2022-10-11T10:35:58.126Z,99762.00
2022-10-11T10:38:35.507Z,99757.80
2022-10-11T10:41:09.602Z,99763.20
2022-10-11T10:43:40.594Z,99756.40
2022-10-11T10:46:48.868Z,99766.80
2022-10-11T10:49:57.074Z,99764.60
2022-10-11T10:52:48.116Z,99766.20
2022-10-11T10:56:08.174Z,99761.80
2022-10-11T10:58:45.125Z,99766.20
2022-10-11T11:01:37.800Z,99766.40
2022-10-11T11:04:31.933Z,99770.20
2022-10-11T11:07:32.426Z,99770.60
2022-10-11T11:10:10.337Z,99770.80
2022-10-11T11:12:40.606Z,99770.00
2022-10-11T11:15:20.095Z,99776.00
2022-10-11T11:18:05.000Z,99768.20
2022-10-11T11:21:06.168Z,99765.40
2022-10-11T11:23:44.989Z,99767.60
2022-10-11T11:26:44.259Z,99773.80
2022-10-11T11:29:20.147Z,99771.40
2022-10-11T11:32:24.897Z,99776.40
2022-10-11T11:35:01.283Z,99773.80
2022-10-11T11:37:38.213Z,99773.40
2022-10-11T11:40:24.161Z,99768.40
2022-10-11T11:42:56.999Z,99773.00
2022-10-11T11:45:44.129Z,99772.40
2022-10-11T11:48:29.589Z,99765.40
2022-10-11T11:51:15.311Z,99775.40
2022-10-11T11:54:09.297Z,99771.80
2022-10-11T11:57:27.115Z,99773.60
2022-10-11T12:00:13.821Z,99779.40
2022-10-11T12:02:56.886Z,99773.20
2022-10-11T12:05:32.889Z,99776.00
2022-10-11T12:08:03.781Z,99774.20
2022-10-11T12:10:49.325Z,99778.80
2022-10-11T12:13:27.332Z,99779.20
2022-10-11T12:16:03.587Z,99779.00
2022-10-11T12:18:37.166Z,99779.60
2022-10-11T12:21:33.752Z,99781.40
2022-10-11T12:24:52.746Z,99780.40
2022-10-11T12:27:44.421Z,99778.80
2022-10-11T12:30:53.476Z,99778.80
2022-10-11T12:33:45.453Z,99777.00
2022-10-11T12:36:29.555Z,99776.20
2022-10-11T12:39:22.511Z,99775.00
2022-10-11T12:41:53.775Z,99775.00
2022-10-11T12:44:28.881Z,99776.60
2022-10-11T12:47:20.866Z,99779.60
2022-10-11T12:50:21.683Z,99784.20
2022-10-11T12:53:25.161Z,99780.40
2022-10-11T12:56:04.511Z,99783.80
2022-10-11T12:58:41.360Z,99785.20
2022-10-11T13:01:23.801Z,99786.60
2022-10-11T13:04:07.967Z,99787.00
2022-10-11T13:06:45.894Z,99782.40
2022-10-11T13:09:34.148Z,99781.60
2022-10-11T13:12:09.386Z,99783.40
2022-10-11T13:14:45.029Z,99787.40
2022-10-11T13:17:35.810Z,99790.00
2022-10-11T13:20:31.574Z,99783.00
2022-10-11T13:22:59.434Z,99783.80
2022-10-11T13:25:36.483Z,99782.60
2022-10-11T13:28:09.565Z,99780.80
2022-10-11T13:30:43.909Z,99787.00
2022-10-11T13:33:23.625Z,99782.60
2022-10-11T13:35:53.099Z,99784.20
2022-10-11T13:38:31.476Z,99792.20
2022-10-11T13:41:04.290Z,99788.40
2022-10-11T13:43:34.829Z,99790.60
2022-10-11T13:46:05.251Z,99789.00
2022-10-11T13:48:41.051Z,99785.20
2022-10-11T13:51:38.456Z,99783.20
2022-10-11T13:54:13.558Z,99787.80
2022-10-11T13:56:52.629Z,99788.00
2022-10-11T13:59:24.707Z,99790.20
2022-10-11T14:02:00.482Z,99794.80
2022-10-11T14:04:39.929Z,99794.00
2022-10-11T14:07:33.265Z,99794.80
2022-10-11T14:10:01.093Z,99790.40
2022-10-11T14:12:40.872Z,99796.80
2022-10-11T14:15:31.037Z,99791.40
2022-10-11T14:18:01.069Z,99791.00
2022-10-11T14:20:39.770Z,99790.60
2022-10-11T14:23:07.604Z,99795.20
2022-10-11T14:25:35.385Z,99790.00
2022-10-11T14:28:05.633Z,99791.20
2022-10-11T14:30:33.256Z,99793.80
2022-10-11T14:33:02.705Z,99796.00
2022-10-11T14:35:32.908Z,99795.80
2022-10-11T14:38:00.960Z,99797.20
2022-10-11T14:40:31.668Z,99795.80
2022-10-11T14:42:59.373Z,99796.20
2022-10-11T14:45:28.682Z,99799.20
2022-10-11T14:47:56.481Z,99802.40
2022-10-11T14:50:48.533Z,99804.80
2022-10-11T14:53:16.571Z,99808.40
2022-10-11T14:55:44.915Z,99810.60
2022-10-11T14:58:18.502Z,99809.20
2022-10-11T15:00:46.500Z,99816.40
2022-10-11T15:03:15.618Z,99813.20
2022-10-11T15:05:43.306Z,99815.00
2022-10-11T15:08:12.081Z,99819.60
2022-10-11T15:10:42.034Z,99816.80
2022-10-11T15:13:10.218Z,99805.80
2022-10-11T15:15:41.227Z,99808.00
2022-10-11T15:18:13.468Z,99806.80
2022-10-11T15:20:45.285Z,99814.00
2022-10-11T15:23:12.884Z,99808.00
2022-10-11T15:25:42.628Z,99808.80
2022-10-11T15:28:27.198Z,99809.60
2022-10-11T15:30:55.901Z,99809.80
2022-10-11T15:33:24.884Z,99811.60
2022-10-11T15:35:52.672Z,99821.40
2022-10-11T15:38:25.334Z,99827.00
2022-10-11T15:40:54.545Z,99827.00
2022-10-11T15:43:25.010Z,99827.80
2022-10-11T15:45:55.202Z,99825.60
2022-10-11T15:48:26.433Z,99826.20
2022-10-11T15:50:55.054Z,99828.40
2022-10-11T15:53:30.938Z,99839.80
2022-10-11T15:56:03.751Z,99835.20
2022-10-11T15:58:39.420Z,99838.00
2022-10-11T16:01:15.597Z,99839.00
2022-10-11T16:03:44.416Z,99844.40
2022-10-11T16:06:12.523Z,99841.00
2022-10-11T16:08:41.237Z,99848.80
2022-10-11T16:11:12.500Z,99847.40
2022-10-11T16:13:40.514Z,99854.20
2022-10-11T16:16:11.269Z,99857.80
2022-10-11T16:18:39.780Z,99860.00
2022-10-11T16:21:10.883Z,99865.60
2022-10-11T16:23:38.943Z,99872.00
2022-10-11T16:26:12.041Z,99873.60
2022-10-11T16:28:40.212Z,99873.40
2022-10-11T16:31:13.258Z,99875.80
2022-10-11T16:33:45.938Z,99876.60
2022-10-11T16:36:38.144Z,99876.40
2022-10-11T16:39:12.714Z,99886.00
2022-10-11T16:41:41.782Z,99882.80
2022-10-11T16:44:17.762Z,99892.00
2022-10-11T16:46:50.592Z,99886.60
2022-10-11T16:49:22.588Z,99888.60
2022-10-11T16:51:52.384Z,99896.40
2022-10-11T16:54:21.869Z,99898.20
2022-10-11T16:56:50.306Z,99897.60
2022-10-11T16:59:18.600Z,99896.00
2022-10-11T17:01:46.260Z,99896.00
2022-10-11T17:04:15.256Z,99895.60
2022-10-11T17:06:44.027Z,99903.20
2022-10-11T17:09:12.993Z,99906.20
2022-10-11T17:11:40.782Z,99908.60
2022-10-11T17:14:10.560Z,99916.00
2022-10-11T17:16:39.144Z,99908.60
2022-10-11T17:19:12.129Z,99912.00
2022-10-11T17:21:40.565Z,99911.40
2022-10-11T17:24:09.032Z,99919.80
2022-10-11T17:26:36.825Z,99920.20
2022-10-11T17:29:04.613Z,99917.60
2022-10-11T17:31:32.450Z,99919.00
2022-10-11T17:34:01.326Z,99922.20
2022-10-11T17:36:36.431Z,99922.60
2022-10-11T17:39:12.646Z,99921.00
2022-10-11T17:41:41.682Z,99928.60
2022-10-11T17:44:10.389Z,99931.80
2022-10-11T17:46:38.732Z,99927.20
2022-10-11T17:49:08.541Z,99923.00
2022-10-11T17:51:37.015Z,99927.60
2022-10-11T17:54:06.127Z,99919.80
2022-10-11T17:56:38.030Z,99925.20
2022-10-11T17:59:08.418Z,99929.60
2022-10-11T18:01:36.409Z,99932.20
2022-10-11T18:04:06.168Z,99929.80
2022-10-11T18:06:39.526Z,99926.80
2022-10-11T18:09:07.911Z,99925.20
2022-10-11T18:11:35.741Z,99923.80
2022-10-11T18:14:05.232Z,99924.20
2022-10-11T18:16:34.969Z,99921.60
2022-10-11T18:19:06.653Z,99929.80
2022-10-11T18:21:35.221Z,99926.20
2022-10-11T18:24:07.690Z,99929.60
2022-10-11T18:26:35.345Z,99927.80
2022-10-11T18:29:04.827Z,99924.60
2022-10-11T18:31:35.173Z,99925.80
2022-10-11T18:34:05.633Z,99927.00
2022-10-11T18:36:33.278Z,99925.40
2022-10-11T18:39:06.672Z,99919.80
2022-10-11T18:41:35.766Z,99919.00
2022-10-11T18:44:06.988Z,99923.60
2022-10-11T18:46:35.591Z,99922.20
2022-10-11T18:49:03.974Z,99932.00
2022-10-11T18:51:35.765Z,99927.40
2022-10-11T18:54:05.542Z,99926.80
2022-10-11T18:56:35.532Z,99927.60
2022-10-11T18:59:06.036Z,99925.20
2022-10-11T19:01:40.812Z,99929.40
2022-10-11T19:04:11.344Z,99927.00
2022-10-11T19:06:43.784Z,99926.20
2022-10-11T19:09:22.369Z,99929.40
2022-10-11T19:11:52.995Z,99930.00
2022-10-11T19:14:28.700Z,99930.60
2022-10-11T19:16:57.502Z,99932.80
2022-10-11T19:19:28.457Z,99927.20
2022-10-11T19:21:56.844Z,99926.60
2022-10-11T19:24:28.333Z,99932.60
2022-10-11T19:27:01.371Z,99933.80
2022-10-11T19:29:31.667Z,99937.60
2022-10-11T19:32:03.532Z,99932.60
2022-10-11T19:34:32.744Z,99941.80
2022-10-11T19:37:01.218Z,99939.60
2022-10-11T19:39:29.664Z,99939.60
2022-10-11T19:41:57.388Z,99943.20
2022-10-11T19:44:25.028Z,99942.60
2022-10-11T19:46:53.259Z,99943.20
2022-10-11T19:49:25.126Z,99949.20
2022-10-11T19:51:55.253Z,99948.20
2022-10-11T19:54:24.002Z,99949.00
2022-10-11T19:56:52.515Z,99952.60
2022-10-11T19:59:20.229Z,99953.40
2022-10-11T20:01:52.784Z,99952.80
2022-10-11T20:04:50.534Z,99949.40
2022-10-11T20:07:10.455Z,99952.60
2022-10-11T20:09:38.088Z,99961.00
2022-10-11T20:12:06.083Z,99961.60
2022-10-11T20:14:33.656Z,99955.60
2022-10-11T20:17:01.256Z,99950.80
2022-10-11T20:19:31.106Z,99958.40
2022-10-11T20:22:01.319Z,99955.60
2022-10-11T20:24:33.568Z,99953.80
2022-10-11T20:27:06.713Z,99956.20
2022-10-11T20:29:34.786Z,99956.40
2022-10-11T20:32:02.421Z,99959.80
2022-10-11T20:34:30.603Z,99957.60
2022-10-11T20:36:58.900Z,99957.60
2022-10-11T20:39:26.958Z,99952.00
2022-10-11T20:41:54.854Z,99958.40
2022-10-11T20:44:22.442Z,99954.60
2022-10-11T20:46:50.378Z,99957.00
2022-10-11T20:49:19.886Z,99960.80
2022-10-11T20:51:47.929Z,99956.20
2022-10-11T20:54:16.268Z,99958.20
2022-10-11T20:56:43.900Z,99959.80
2022-10-11T20:59:11.512Z,99963.20
2022-10-11T21:01:41.212Z,99958.60
2022-10-11T21:04:19.273Z,99962.20
2022-10-11T21:06:48.843Z,99961.40
2022-10-11T21:09:17.558Z,99965.00
2022-10-11T21:11:45.774Z,99964.80
2022-10-11T21:14:13.909Z,99961.00
2022-10-11T21:16:42.141Z,99959.40
2022-10-11T21:19:15.245Z,99960.80
2022-10-11T21:21:50.920Z,99963.60
2022-10-11T21:24:21.583Z,99966.60
2022-10-11T21:26:49.189Z,99965.80
2022-10-11T21:29:17.314Z,99966.20
2022-10-11T21:31:44.915Z,99966.20
2022-10-11T21:34:12.526Z,99966.80
2022-10-11T21:36:40.079Z,99968.40
2022-10-11T21:39:07.676Z,99966.40
2022-10-11T21:41:35.358Z,99963.80
2022-10-11T21:44:03.138Z,99967.40
2022-10-11T21:47:01.103Z,99972.20
2022-10-11T21:49:20.240Z,99968.60
2022-10-11T21:51:47.903Z,99968.60
2022-10-11T21:54:15.928Z,99971.60
2022-10-11T21:56:43.484Z,99968.80
2022-10-11T21:59:12.678Z,99965.00
2022-10-11T22:01:41.866Z,99961.60
2022-10-11T22:04:11.132Z,99961.60
2022-10-11T22:06:40.047Z,99960.40
2022-10-11T22:09:08.479Z,99964.40
2022-10-11T22:11:37.203Z,99965.00
2022-10-11T22:14:04.897Z,99964.60
2022-10-11T22:16:34.591Z,99957.60
2022-10-11T22:19:02.627Z,99953.20
2022-10-11T22:21:30.185Z,99954.60
2022-10-11T22:23:57.861Z,99954.60
2022-10-11T22:26:30.620Z,99948.00
2022-10-11T22:29:00.202Z,99953.00
2022-10-11T22:31:29.329Z,99956.60
2022-10-11T22:33:59.861Z,99959.20
2022-10-11T22:36:30.461Z,99958.80
2022-10-11T22:38:58.662Z,99961.20
2022-10-11T22:41:26.471Z,99963.20
2022-10-11T22:43:54.125Z,99954.20
2022-10-11T22:46:21.837Z,99962.20
2022-10-11T22:48:49.379Z,99963.20
2022-10-11T22:51:17.229Z,99963.80
2022-10-11T22:53:45.247Z,99963.00
2022-10-11T22:56:13.087Z,99963.20
2022-10-11T22:58:40.754Z,99962.20
2022-10-11T23:01:12.721Z,99965.40
2022-10-11T23:03:40.386Z,99961.00
2022-10-11T23:06:08.842Z,99960.00
2022-10-11T23:08:36.629Z,99965.60
2022-10-11T23:11:07.253Z,99968.00
2022-10-11T23:13:35.479Z,99966.80
2022-10-11T23:16:09.399Z,99970.20
2022-10-11T23:18:37.766Z,99971.20
2022-10-11T23:21:06.789Z,99966.60
2022-10-11T23:23:34.840Z,99964.20
2022-10-11T23:26:15.271Z,99968.60
2022-10-11T23:28:44.057Z,99968.20
2022-10-11T23:31:18.169Z,99968.60
2022-10-11T23:33:47.220Z,99971.60
2022-10-11T23:36:22.522Z,99972.40
2022-10-11T23:38:56.706Z,99972.40
2022-10-11T23:41:28.143Z,99973.20
2022-10-11T23:43:56.803Z,99975.40
2022-10-11T23:46:24.891Z,99976.40
2022-10-11T23:48:52.466Z,99972.80
2022-10-11T23:51:20.229Z,99973.40
2022-10-11T23:53:48.109Z,99977.80
2022-10-11T23:56:15.709Z,99973.60
2022-10-11T23:58:43.291Z,99973.40
